sensor_id;sensor_type;location;lat;lon;timestamp;pressure;altitude;pressure_sealevel;temperature;humidity
31096;BME280;17749;51.962;8.560;2023-08-21T05:02:53;100750.09;;;18.31;100.00
31096;BME280;17749;51.962;8.560;2023-08-21T05:05:22;100757.13;;;18.34;100.00
31096;BME280;17749;51.962;8.560;2023-08-21T05:07:50;100776.25;;;18.44;100.00
31096;BME280;17749;51.962;8.560;2023-08-21T05:10:17;100783.22;;;18.48;100.00
31096;BME280;17749;51.962;8.560;2023-08-21T05:12:44;100776.84;;;18.49;100.00
31096;BME280;17749;51.962;8.560;2023-08-21T05:15:12;100765.13;;;18.50;100.00
31096;BME280;17749;51.962;8.560;2023-08-21T05:17:39;100752.38;;;18.52;100.00
31096;BME280;17749;51.962;8.560;2023-08-21T05:20:07;100747.19;;;18.49;100.00
31096;BME280;17749;51.962;8.560;2023-08-21T05:22:34;100741.72;;;18.50;100.00
31096;BME280;17749;51.962;8.560;2023-08-21T05:25:02;100741.97;;;18.60;100.00
31096;BME280;17749;51.962;8.560;2023-08-21T05:27:30;100746.69;;;18.71;100.00
31096;BME280;17749;51.962;8.560;2023-08-21T05:29:57;100737.94;;;18.81;100.00
31096;BME280;17749;51.962;8.560;2023-08-21T05:32:23;100750.75;;;18.92;100.00
31096;BME280;17749;51.962;8.560;2023-08-21T05:34:51;100747.56;;;19.00;100.00
31096;BME280;17749;51.962;8.560;2023-08-21T05:37:18;100755.81;;;19.11;100.00
31096;BME280;17749;51.962;8.560;2023-08-21T05:39:45;100759.13;;;19.29;100.00
31096;BME280;17749;51.962;8.560;2023-08-21T05:42:12;100753.66;;;19.43;100.00
31096;BME280;17749;51.962;8.560;2023-08-21T05:44:41;100753.94;;;19.53;100.00
31096;BME280;17749;51.962;8.560;2023-08-21T05:47:08;100747.25;;;19.59;100.00
31096;BME280;17749;51.962;8.560;2023-08-21T05:49:35;100758.16;;;19.57;100.00
31096;BME280;17749;51.962;8.560;2023-08-21T05:52:04;100764.66;;;19.55;100.00
31096;BME280;17749;51.962;8.560;2023-08-21T05:54:31;100763.75;;;19.54;100.00
31096;BME280;17749;51.962;8.560;2023-08-21T05:56:58;100766.44;;;19.54;100.00
31096;BME280;17749;51.962;8.560;2023-08-21T05:59:32;100764.94;;;19.50;100.00
31096;BME280;17749;51.962;8.560;2023-08-21T06:02:01;100760.66;;;19.60;100.00
31096;BME280;17749;51.962;8.560;2023-08-21T06:04:28;100755.19;;;19.75;100.00
31096;BME280;17749;51.962;8.560;2023-08-21T06:07:00;100758.19;;;19.97;100.00
31096;BME280;17749;51.962;8.560;2023-08-21T06:09:28;100759.94;;;20.24;100.00
31096;BME280;17749;51.962;8.560;2023-08-21T06:11:56;100762.66;;;20.62;100.00
31096;BME280;17749;51.962;8.560;2023-08-21T06:14:23;100773.28;;;21.02;100.00
31096;BME280;17749;51.962;8.560;2023-08-21T06:17:00;100754.41;;;21.37;100.00
31096;BME280;17749;51.962;8.560;2023-08-21T06:19:31;100759.19;;;21.82;100.00
31096;BME280;17749;51.962;8.560;2023-08-21T06:21:58;100775.66;;;22.27;100.00
31096;BME280;17749;51.962;8.560;2023-08-21T06:24:25;100778.72;;;22.34;100.00
31096;BME280;17749;51.962;8.560;2023-08-21T06:26:57;100775.66;;;22.03;100.00
31096;BME280;17749;51.962;8.560;2023-08-21T06:29:24;100779.28;;;21.79;100.00
31096;BME280;17749;51.962;8.560;2023-08-21T06:31:51;100773.81;;;21.68;100.00
31096;BME280;17749;51.962;8.560;2023-08-21T06:34:19;100777.41;;;21.44;100.00
31096;BME280;17749;51.962;8.560;2023-08-21T06:36:47;100770.03;;;21.34;100.00
31096;BME280;17749;51.962;8.560;2023-08-21T06:39:13;100778.50;;;21.29;100.00
31096;BME280;17749;51.962;8.560;2023-08-21T06:41:40;100773.97;;;21.78;100.00
31096;BME280;17749;51.962;8.560;2023-08-21T06:44:12;100766.81;;;22.12;100.00
31096;BME280;17749;51.962;8.560;2023-08-21T06:46:39;100766.31;;;22.18;100.00
31096;BME280;17749;51.962;8.560;2023-08-21T06:49:06;100768.47;;;22.26;100.00
31096;BME280;17749;51.962;8.560;2023-08-21T06:51:33;100764.69;;;22.62;100.00
31096;BME280;17749;51.962;8.560;2023-08-21T06:54:00;100762.94;;;23.17;100.00
31096;BME280;17749;51.962;8.560;2023-08-21T06:56:27;100768.53;;;23.48;100.00
31096;BME280;17749;51.962;8.560;2023-08-21T06:58:54;100772.94;;;23.60;100.00
31096;BME280;17749;51.962;8.560;2023-08-21T07:01:21;100778.88;;;23.54;100.00
31096;BME280;17749;51.962;8.560;2023-08-21T07:03:49;100777.47;;;23.82;100.00
31096;BME280;17749;51.962;8.560;2023-08-21T07:06:16;100775.00;;;23.68;100.00
31096;BME280;17749;51.962;8.560;2023-08-21T07:08:43;100769.97;;;23.20;100.00
31096;BME280;17749;51.962;8.560;2023-08-21T07:11:10;100768.25;;;22.74;100.00
31096;BME280;17749;51.962;8.560;2023-08-21T07:13:40;100768.88;;;22.55;100.00
31096;BME280;17749;51.962;8.560;2023-08-21T07:16:10;100762.34;;;23.03;100.00
31096;BME280;17749;51.962;8.560;2023-08-21T07:18:47;100761.34;;;23.47;100.00
31096;BME280;17749;51.962;8.560;2023-08-21T07:21:14;100765.19;;;23.88;100.00
31096;BME280;17749;51.962;8.560;2023-08-21T07:23:56;100780.47;;;24.21;100.00
31096;BME280;17749;51.962;8.560;2023-08-21T07:26:23;100777.84;;;24.62;100.00
31096;BME280;17749;51.962;8.560;2023-08-21T07:28:50;100783.19;;;24.73;100.00
31096;BME280;17749;51.962;8.560;2023-08-21T07:31:18;100771.81;;;24.37;100.00
31096;BME280;17749;51.962;8.560;2023-08-21T07:33:45;100776.59;;;24.66;100.00
31096;BME280;17749;51.962;8.560;2023-08-21T07:36:18;100782.72;;;24.99;100.00
31096;BME280;17749;51.962;8.560;2023-08-21T07:38:47;100777.88;;;25.12;100.00
31096;BME280;17749;51.962;8.560;2023-08-21T07:41:14;100783.72;;;25.28;100.00
31096;BME280;17749;51.962;8.560;2023-08-21T07:43:42;100775.09;;;25.23;100.00
31096;BME280;17749;51.962;8.560;2023-08-21T07:46:13;100787.66;;;25.14;100.00
31096;BME280;17749;51.962;8.560;2023-08-21T07:48:43;100781.63;;;25.11;100.00
31096;BME280;17749;51.962;8.560;2023-08-21T07:51:10;100779.84;;;25.41;100.00
31096;BME280;17749;51.962;8.560;2023-08-21T07:53:38;100785.44;;;25.49;100.00
31096;BME280;17749;51.962;8.560;2023-08-21T07:56:04;100790.34;;;25.45;100.00
31096;BME280;17749;51.962;8.560;2023-08-21T07:58:32;100790.00;;;25.19;100.00
31096;BME280;17749;51.962;8.560;2023-08-21T08:00:59;100789.78;;;24.70;100.00
31096;BME280;17749;51.962;8.560;2023-08-21T08:03:28;100794.09;;;24.73;100.00
31096;BME280;17749;51.962;8.560;2023-08-21T08:05:55;100791.47;;;24.62;100.00
31096;BME280;17749;51.962;8.560;2023-08-21T08:08:22;100789.81;;;24.49;100.00
31096;BME280;17749;51.962;8.560;2023-08-21T08:10:48;100791.16;;;24.55;100.00
31096;BME280;17749;51.962;8.560;2023-08-21T08:13:16;100798.19;;;24.88;100.00
31096;BME280;17749;51.962;8.560;2023-08-21T08:15:43;100792.22;;;25.04;100.00
31096;BME280;17749;51.962;8.560;2023-08-21T08:18:13;100796.59;;;24.86;100.00
31096;BME280;17749;51.962;8.560;2023-08-21T08:20:40;100787.03;;;24.61;100.00
31096;BME280;17749;51.962;8.560;2023-08-21T08:23:07;100790.72;;;24.60;100.00
31096;BME280;17749;51.962;8.560;2023-08-21T08:25:34;100783.38;;;24.51;100.00
31096;BME280;17749;51.962;8.560;2023-08-21T08:28:01;100790.16;;;24.35;100.00
31096;BME280;17749;51.962;8.560;2023-08-21T08:30:28;100780.03;;;24.26;100.00
31096;BME280;17749;51.962;8.560;2023-08-21T08:32:56;100782.38;;;24.31;100.00
31096;BME280;17749;51.962;8.560;2023-08-21T08:35:22;100784.69;;;24.35;100.00
31096;BME280;17749;51.962;8.560;2023-08-21T08:37:49;100789.28;;;24.14;100.00
31096;BME280;17749;51.962;8.560;2023-08-21T08:40:16;100796.91;;;24.20;100.00
31096;BME280;17749;51.962;8.560;2023-08-21T08:42:43;100791.00;;;23.94;100.00
31096;BME280;17749;51.962;8.560;2023-08-21T08:45:12;100783.88;;;24.02;100.00
31096;BME280;17749;51.962;8.560;2023-08-21T08:47:40;100789.09;;;24.05;100.00
31096;BME280;17749;51.962;8.560;2023-08-21T08:50:08;100784.34;;;24.28;100.00
31096;BME280;17749;51.962;8.560;2023-08-21T08:52:37;100782.72;;;24.37;100.00
31096;BME280;17749;51.962;8.560;2023-08-21T08:55:06;100777.38;;;24.57;100.00
31096;BME280;17749;51.962;8.560;2023-08-21T08:57:33;100780.56;;;24.62;100.00
31096;BME280;17749;51.962;8.560;2023-08-21T09:00:04;100776.38;;;24.88;100.00
31096;BME280;17749;51.962;8.560;2023-08-21T09:02:31;100778.47;;;25.06;100.00
31096;BME280;17749;51.962;8.560;2023-08-21T09:04:58;100778.13;;;24.99;100.00
31096;BME280;17749;51.962;8.560;2023-08-21T09:07:25;100775.63;;;25.17;100.00
31096;BME280;17749;51.962;8.560;2023-08-21T09:09:52;100771.97;;;25.57;100.00
31096;BME280;17749;51.962;8.560;2023-08-21T09:12:20;100772.84;;;25.48;100.00
31096;BME280;17749;51.962;8.560;2023-08-21T09:14:47;100780.59;;;25.62;100.00
31096;BME280;17749;51.962;8.560;2023-08-21T09:17:15;100768.69;;;25.73;100.00
31096;BME280;17749;51.962;8.560;2023-08-21T09:19:43;100772.59;;;25.90;100.00
31096;BME280;17749;51.962;8.560;2023-08-21T09:22:15;100767.09;;;25.80;100.00
31096;BME280;17749;51.962;8.560;2023-08-21T09:25:03;100765.25;;;26.00;100.00
31096;BME280;17749;51.962;8.560;2023-08-21T09:27:38;100766.25;;;26.18;100.00
31096;BME280;17749;51.962;8.560;2023-08-21T09:30:10;100763.63;;;26.36;100.00
31096;BME280;17749;51.962;8.560;2023-08-21T09:32:58;100768.19;;;26.55;100.00
31096;BME280;17749;51.962;8.560;2023-08-21T09:35:27;100765.00;;;26.50;100.00
31096;BME280;17749;51.962;8.560;2023-08-21T09:37:54;100767.31;;;26.45;100.00
31096;BME280;17749;51.962;8.560;2023-08-21T09:40:21;100776.53;;;26.44;100.00
31096;BME280;17749;51.962;8.560;2023-08-21T09:42:58;100769.63;;;26.59;100.00
31096;BME280;17749;51.962;8.560;2023-08-21T09:45:27;100776.00;;;26.21;100.00
31096;BME280;17749;51.962;8.560;2023-08-21T09:47:55;100764.81;;;25.56;100.00
31096;BME280;17749;51.962;8.560;2023-08-21T09:50:23;100767.13;;;25.61;100.00
31096;BME280;17749;51.962;8.560;2023-08-21T09:52:51;100773.75;;;25.87;100.00
31096;BME280;17749;51.962;8.560;2023-08-21T09:55:20;100763.53;;;25.99;100.00
31096;BME280;17749;51.962;8.560;2023-08-21T09:57:48;100749.31;;;25.95;100.00
31096;BME280;17749;51.962;8.560;2023-08-21T10:00:26;100759.94;;;26.08;100.00
31096;BME280;17749;51.962;8.560;2023-08-21T10:02:59;100758.78;;;26.11;100.00
31096;BME280;17749;51.962;8.560;2023-08-21T10:05:27;100762.78;;;26.16;100.00
31096;BME280;17749;51.962;8.560;2023-08-21T10:07:55;100760.22;;;26.05;100.00
31096;BME280;17749;51.962;8.560;2023-08-21T10:10:22;100766.34;;;26.36;100.00
31096;BME280;17749;51.962;8.560;2023-08-21T10:12:50;100763.25;;;26.69;100.00
31096;BME280;17749;51.962;8.560;2023-08-21T10:15:17;100768.72;;;26.59;100.00
31096;BME280;17749;51.962;8.560;2023-08-21T10:17:44;100770.19;;;26.43;100.00
31096;BME280;17749;51.962;8.560;2023-08-21T10:20:11;100765.81;;;26.04;100.00
31096;BME280;17749;51.962;8.560;2023-08-21T10:22:42;100758.19;;;25.78;100.00
31096;BME280;17749;51.962;8.560;2023-08-21T10:25:17;100756.78;;;25.84;100.00
31096;BME280;17749;51.962;8.560;2023-08-21T10:27:49;100758.47;;;25.75;100.00
31096;BME280;17749;51.962;8.560;2023-08-21T10:30:23;100746.53;;;26.24;100.00
31096;BME280;17749;51.962;8.560;2023-08-21T10:32:52;100755.56;;;26.54;100.00
31096;BME280;17749;51.962;8.560;2023-08-21T10:35:21;100758.41;;;26.43;100.00
31096;BME280;17749;51.962;8.560;2023-08-21T10:38:18;100761.00;;;26.44;100.00
31096;BME280;17749;51.962;8.560;2023-08-21T10:41:17;100754.53;;;26.55;100.00
31096;BME280;17749;51.962;8.560;2023-08-21T10:43:52;100741.59;;;26.85;100.00
31096;BME280;17749;51.962;8.560;2023-08-21T10:46:19;100743.44;;;26.94;100.00
31096;BME280;17749;51.962;8.560;2023-08-21T10:48:46;100742.41;;;26.95;100.00
31096;BME280;17749;51.962;8.560;2023-08-21T10:51:16;100744.59;;;26.92;100.00
31096;BME280;17749;51.962;8.560;2023-08-21T10:53:45;100742.41;;;26.67;100.00
31096;BME280;17749;51.962;8.560;2023-08-21T10:56:12;100741.59;;;26.85;100.00
31096;BME280;17749;51.962;8.560;2023-08-21T10:58:42;100741.91;;;26.82;100.00
31096;BME280;17749;51.962;8.560;2023-08-21T11:01:09;100733.59;;;26.74;100.00
31096;BME280;17749;51.962;8.560;2023-08-21T11:03:40;100739.13;;;26.92;100.00
31096;BME280;17749;51.962;8.560;2023-08-21T11:06:08;100732.63;;;26.93;99.26
31096;BME280;17749;51.962;8.560;2023-08-21T11:08:36;100744.31;;;27.13;100.00
31096;BME280;17749;51.962;8.560;2023-08-21T11:11:05;100733.91;;;27.26;98.63
31096;BME280;17749;51.962;8.560;2023-08-21T11:13:33;100743.13;;;27.25;99.60
31096;BME280;17749;51.962;8.560;2023-08-21T11:16:04;100741.72;;;27.21;97.85
31096;BME280;17749;51.962;8.560;2023-08-21T11:18:37;100739.84;;;27.39;97.45
31096;BME280;17749;51.962;8.560;2023-08-21T11:21:12;100738.66;;;27.24;97.41
31096;BME280;17749;51.962;8.560;2023-08-21T11:23:40;100739.16;;;27.09;97.30
31096;BME280;17749;51.962;8.560;2023-08-21T11:26:11;100745.72;;;26.99;100.00
31096;BME280;17749;51.962;8.560;2023-08-21T11:28:47;100742.91;;;27.08;98.92
31096;BME280;17749;51.962;8.560;2023-08-21T11:31:15;100741.09;;;27.27;99.62
31096;BME280;17749;51.962;8.560;2023-08-21T11:33:49;100735.63;;;27.27;96.01
31096;BME280;17749;51.962;8.560;2023-08-21T11:36:18;100728.44;;;27.26;99.14
31096;BME280;17749;51.962;8.560;2023-08-21T11:38:58;100730.91;;;27.19;97.99
31096;BME280;17749;51.962;8.560;2023-08-21T11:41:27;100734.28;;;27.03;99.11
31096;BME280;17749;51.962;8.560;2023-08-21T11:44:01;100725.63;;;27.08;100.00
31096;BME280;17749;51.962;8.560;2023-08-21T11:46:29;100724.88;;;27.16;100.00
31096;BME280;17749;51.962;8.560;2023-08-21T11:48:56;100718.13;;;27.20;99.20
31096;BME280;17749;51.962;8.560;2023-08-21T11:51:23;100711.19;;;27.16;99.25
31096;BME280;17749;51.962;8.560;2023-08-21T11:53:51;100717.72;;;27.32;100.00
31096;BME280;17749;51.962;8.560;2023-08-21T11:56:18;100724.69;;;27.27;99.60
31096;BME280;17749;51.962;8.560;2023-08-21T11:58:50;100734.28;;;27.03;100.00
31096;BME280;17749;51.962;8.560;2023-08-21T12:01:18;100731.47;;;26.95;97.79
31096;BME280;17749;51.962;8.560;2023-08-21T12:03:46;100737.56;;;26.89;100.00
31096;BME280;17749;51.962;8.560;2023-08-21T12:06:22;100730.94;;;26.92;100.00
31096;BME280;17749;51.962;8.560;2023-08-21T12:08:50;100730.00;;;27.01;99.88
31096;BME280;17749;51.962;8.560;2023-08-21T12:11:18;100731.63;;;27.21;100.00
31096;BME280;17749;51.962;8.560;2023-08-21T12:13:45;100730.94;;;27.37;99.59
31096;BME280;17749;51.962;8.560;2023-08-21T12:16:12;100734.06;;;27.42;100.00
31096;BME280;17749;51.962;8.560;2023-08-21T12:18:39;100741.66;;;27.48;98.59
31096;BME280;17749;51.962;8.560;2023-08-21T12:21:07;100739.06;;;27.29;98.05
31096;BME280;17749;51.962;8.560;2023-08-21T12:23:34;100731.56;;;27.03;96.85
31096;BME280;17749;51.962;8.560;2023-08-21T12:26:01;100733.78;;;26.90;96.70
31096;BME280;17749;51.962;8.560;2023-08-21T12:28:28;100732.94;;;26.89;97.98
31096;BME280;17749;51.962;8.560;2023-08-21T12:30:57;100729.75;;;26.94;96.75
31096;BME280;17749;51.962;8.560;2023-08-21T12:33:27;100734.28;;;27.03;98.27
31096;BME280;17749;51.962;8.560;2023-08-21T12:35:54;100727.13;;;27.02;99.05
31096;BME280;17749;51.962;8.560;2023-08-21T12:38:21;100722.88;;;26.90;97.68
31096;BME280;17749;51.962;8.560;2023-08-21T12:40:53;100725.72;;;26.71;98.90
31096;BME280;17749;51.962;8.560;2023-08-21T12:43:20;100722.25;;;26.69;100.00
31096;BME280;17749;51.962;8.560;2023-08-21T12:45:47;100717.56;;;26.51;100.00
31096;BME280;17749;51.962;8.560;2023-08-21T12:48:17;100715.13;;;26.58;100.00
31096;BME280;17749;51.962;8.560;2023-08-21T12:50:44;100712.34;;;26.67;100.00
31096;BME280;17749;51.962;8.560;2023-08-21T12:53:12;100716.31;;;26.83;99.39
31096;BME280;17749;51.962;8.560;2023-08-21T12:55:39;100716.31;;;26.83;99.79
31096;BME280;17749;51.962;8.560;2023-08-21T12:58:06;100714.25;;;26.85;99.14
31096;BME280;17749;51.962;8.560;2023-08-21T13:00:34;100705.63;;;26.89;99.90
31096;BME280;17749;51.962;8.560;2023-08-21T13:03:07;100696.34;;;27.00;100.00
31096;BME280;17749;51.962;8.560;2023-08-21T13:05:49;100692.38;;;27.13;100.00
31096;BME280;17749;51.962;8.560;2023-08-21T13:08:18;100700.09;;;26.99;98.76
31096;BME280;17749;51.962;8.560;2023-08-21T13:10:51;100698.28;;;26.90;97.90
31096;BME280;17749;51.962;8.560;2023-08-21T13:13:35;100690.88;;;27.00;100.00
31096;BME280;17749;51.962;8.560;2023-08-21T13:16:25;100701.44;;;27.13;100.00
31096;BME280;17749;51.962;8.560;2023-08-21T13:26:30;100690.19;;;26.71;100.00
31096;BME280;17749;51.962;8.560;2023-08-21T13:28:58;100685.09;;;26.58;100.00
31096;BME280;17749;51.962;8.560;2023-08-21T13:31:25;100684.31;;;26.65;100.00
31096;BME280;17749;51.962;8.560;2023-08-21T13:33:52;100689.53;;;26.59;100.00
31096;BME280;17749;51.962;8.560;2023-08-21T13:36:20;100690.84;;;26.45;99.04
31096;BME280;17749;51.962;8.560;2023-08-21T13:38:51;100689.13;;;26.54;100.00
31096;BME280;17749;51.962;8.560;2023-08-21T13:41:18;100699.38;;;26.70;100.00
31096;BME280;17749;51.962;8.560;2023-08-21T13:43:46;100694.81;;;26.88;99.81
31096;BME280;17749;51.962;8.560;2023-08-21T13:46:16;100697.56;;;26.88;100.00
31096;BME280;17749;51.962;8.560;2023-08-21T13:48:43;100700.16;;;26.89;100.00
31096;BME280;17749;51.962;8.560;2023-08-21T13:51:10;100690.56;;;27.03;100.00
31096;BME280;17749;51.962;8.560;2023-08-21T13:53:37;100683.63;;;27.09;100.00
31096;BME280;17749;51.962;8.560;2023-08-21T13:56:04;100672.22;;;27.14;99.71
31096;BME280;17749;51.962;8.560;2023-08-21T13:58:31;100673.16;;;27.04;97.25
31096;BME280;17749;51.962;8.560;2023-08-21T14:01:01;100677.28;;;27.08;99.99
31096;BME280;17749;51.962;8.560;2023-08-21T14:03:28;100675.28;;;27.10;98.29
31096;BME280;17749;51.962;8.560;2023-08-21T14:05:55;100674.78;;;26.97;98.97
31096;BME280;17749;51.962;8.560;2023-08-21T14:08:25;100667.50;;;26.88;98.96
31096;BME280;17749;51.962;8.560;2023-08-21T14:10:51;100675.59;;;26.80;98.89
31096;BME280;17749;51.962;8.560;2023-08-21T14:13:18;100676.09;;;26.75;100.00
31096;BME280;17749;51.962;8.560;2023-08-21T14:15:45;100665.50;;;26.62;99.63
31096;BME280;17749;51.962;8.560;2023-08-21T14:18:12;100658.88;;;26.65;100.00
31096;BME280;17749;51.962;8.560;2023-08-21T14:20:40;100653.97;;;26.69;100.00
31096;BME280;17749;51.962;8.560;2023-08-21T14:23:06;100646.81;;;26.67;100.00
31096;BME280;17749;51.962;8.560;2023-08-21T14:25:33;100641.06;;;26.61;100.00
31096;BME280;17749;51.962;8.560;2023-08-21T14:28:00;100648.19;;;26.72;100.00
31096;BME280;17749;51.962;8.560;2023-08-21T14:30:28;100639.16;;;26.71;100.00
31096;BME280;17749;51.962;8.560;2023-08-21T14:32:55;100651.38;;;26.67;100.00
31096;BME280;17749;51.962;8.560;2023-08-21T14:35:22;100654.59;;;26.62;100.00
31096;BME280;17749;51.962;8.560;2023-08-21T14:37:49;100647.03;;;26.74;100.00
31096;BME280;17749;51.962;8.560;2023-08-21T14:40:16;100641.81;;;26.81;100.00
31096;BME280;17749;51.962;8.560;2023-08-21T14:42:43;100640.94;;;26.62;99.78
31096;BME280;17749;51.962;8.560;2023-08-21T14:45:10;100643.84;;;26.79;100.00
31096;BME280;17749;51.962;8.560;2023-08-21T14:47:37;100643.63;;;26.90;100.00
31096;BME280;17749;51.962;8.560;2023-08-21T14:50:05;100640.69;;;27.01;100.00
31096;BME280;17749;51.962;8.560;2023-08-21T14:52:32;100637.63;;;27.04;100.00
31096;BME280;17749;51.962;8.560;2023-08-21T14:54:59;100644.34;;;26.92;100.00
31096;BME280;17749;51.962;8.560;2023-08-21T14:57:26;100648.81;;;26.65;99.29
31096;BME280;17749;51.962;8.560;2023-08-21T14:59:54;100651.22;;;26.41;100.00
31096;BME280;17749;51.962;8.560;2023-08-21T15:02:21;100648.31;;;26.42;100.00
31096;BME280;17749;51.962;8.560;2023-08-21T15:04:48;100644.56;;;26.43;100.00
31096;BME280;17749;51.962;8.560;2023-08-21T15:07:15;100646.97;;;26.29;100.00
31096;BME280;17749;51.962;8.560;2023-08-21T15:09:41;100647.00;;;26.19;100.00
31096;BME280;17749;51.962;8.560;2023-08-21T15:12:08;100649.69;;;26.29;100.00
31096;BME280;17749;51.962;8.560;2023-08-21T15:14:35;100658.59;;;26.31;100.00
31096;BME280;17749;51.962;8.560;2023-08-21T15:17:03;100645.72;;;26.13;95.40
31096;BME280;17749;51.962;8.560;2023-08-21T15:19:47;100649.63;;;26.01;97.75
31096;BME280;17749;51.962;8.560;2023-08-21T15:22:14;100649.94;;;25.88;99.68
31096;BME280;17749;51.962;8.560;2023-08-21T15:24:42;100649.81;;;25.90;98.48
31096;BME280;17749;51.962;8.560;2023-08-21T15:27:08;100649.91;;;26.08;96.89
31096;BME280;17749;51.962;8.560;2023-08-21T15:29:35;100641.28;;;26.12;96.00
31096;BME280;17749;51.962;8.560;2023-08-21T15:32:02;100638.41;;;26.04;98.41
31096;BME280;17749;51.962;8.560;2023-08-21T15:34:29;100629.25;;;25.95;97.05
31096;BME280;17749;51.962;8.560;2023-08-21T15:36:56;100636.75;;;25.84;99.46
31096;BME280;17749;51.962;8.560;2023-08-21T15:39:23;100635.00;;;25.83;98.82
31096;BME280;17749;51.962;8.560;2023-08-21T15:41:51;100630.88;;;25.69;97.55
31096;BME280;17749;51.962;8.560;2023-08-21T15:44:18;100625.56;;;25.67;97.97
31096;BME280;17749;51.962;8.560;2023-08-21T15:46:45;100618.69;;;25.63;97.68
31096;BME280;17749;51.962;8.560;2023-08-21T15:49:12;100618.13;;;25.40;95.68
31096;BME280;17749;51.962;8.560;2023-08-21T15:51:42;100619.28;;;25.38;98.03
31096;BME280;17749;51.962;8.560;2023-08-21T15:54:09;100624.31;;;25.32;96.50
31096;BME280;17749;51.962;8.560;2023-08-21T15:56:36;100615.28;;;25.32;98.00
31096;BME280;17749;51.962;8.560;2023-08-21T15:59:03;100609.41;;;25.27;95.52
31096;BME280;17749;51.962;8.560;2023-08-21T16:01:30;100605.81;;;25.26;97.28
31096;BME280;17749;51.962;8.560;2023-08-21T16:03:57;100601.34;;;25.25;96.53
31096;BME280;17749;51.962;8.560;2023-08-21T16:06:24;100600.66;;;25.23;94.51
31096;BME280;17749;51.962;8.560;2023-08-21T16:08:51;100610.13;;;25.19;94.82
31096;BME280;17749;51.962;8.560;2023-08-21T16:11:18;100600.94;;;25.20;96.75
31096;BME280;17749;51.962;8.560;2023-08-21T16:13:45;100614.44;;;25.22;97.10
31096;BME280;17749;51.962;8.560;2023-08-21T16:16:12;100601.63;;;25.12;95.33
31096;BME280;17749;51.962;8.560;2023-08-21T16:18:39;100603.78;;;25.09;94.98
31096;BME280;17749;51.962;8.560;2023-08-21T16:21:06;100614.09;;;25.05;95.23
31096;BME280;17749;51.962;8.560;2023-08-21T16:23:33;100603.50;;;25.02;94.39
31096;BME280;17749;51.962;8.560;2023-08-21T16:26:00;100603.63;;;24.91;94.26
31096;BME280;17749;51.962;8.560;2023-08-21T16:28:28;100608.38;;;24.89;97.18
31096;BME280;17749;51.962;8.560;2023-08-21T16:30:55;100596.31;;;24.82;96.32
31096;BME280;17749;51.962;8.560;2023-08-21T16:33:23;100602.06;;;24.79;96.80
31096;BME280;17749;51.962;8.560;2023-08-21T16:35:50;100599.16;;;24.80;97.86
31096;BME280;17749;51.962;8.560;2023-08-21T16:38:17;100593.44;;;24.83;98.40
31096;BME280;17749;51.962;8.560;2023-08-21T16:40:43;100599.88;;;24.82;97.80
31096;BME280;17749;51.962;8.560;2023-08-21T16:43:10;100600.19;;;24.79;97.88
31096;BME280;17749;51.962;8.560;2023-08-21T16:45:37;100603.19;;;24.76;98.37
31096;BME280;17749;51.962;8.560;2023-08-21T16:48:05;100592.00;;;24.69;97.60
31096;BME280;17749;51.962;8.560;2023-08-21T16:50:32;100595.13;;;24.65;97.50
31096;BME280;17749;51.962;8.560;2023-08-21T16:52:59;100599.88;;;24.63;97.89
31096;BME280;17749;51.962;8.560;2023-08-21T16:55:46;100596.56;;;24.69;97.88
31096;BME280;17749;51.962;8.560;2023-08-21T16:58:13;100585.97;;;24.66;97.28
31096;BME280;17749;51.962;8.560;2023-08-21T17:00:41;100594.44;;;24.63;97.72
31096;BME280;17749;51.962;8.560;2023-08-21T17:03:08;100591.41;;;24.66;98.53
31096;BME280;17749;51.962;8.560;2023-08-21T17:05:36;100587.25;;;24.62;97.86
31096;BME280;17749;51.962;8.560;2023-08-21T17:08:03;100591.97;;;24.60;97.97
31096;BME280;17749;51.962;8.560;2023-08-21T17:10:30;100586.81;;;24.57;98.36
31096;BME280;17749;51.962;8.560;2023-08-21T17:13:00;100588.78;;;24.55;99.51
31096;BME280;17749;51.962;8.560;2023-08-21T17:15:27;100585.50;;;24.51;99.14
31096;BME280;17749;51.962;8.560;2023-08-21T17:17:54;100591.69;;;24.53;99.27
31096;BME280;17749;51.962;8.560;2023-08-21T17:20:22;100584.03;;;24.47;99.42
31096;BME280;17749;51.962;8.560;2023-08-21T17:22:53;100581.47;;;24.45;100.00
31096;BME280;17749;51.962;8.560;2023-08-21T17:25:21;100576.28;;;24.42;100.00
31096;BME280;17749;51.962;8.560;2023-08-21T17:27:48;100571.53;;;24.35;100.00
31096;BME280;17749;51.962;8.560;2023-08-21T17:30:15;100577.53;;;24.28;100.00
31096;BME280;17749;51.962;8.560;2023-08-21T17:32:42;100575.25;;;24.24;100.00
31096;BME280;17749;51.962;8.560;2023-08-21T17:35:11;100574.63;;;24.20;100.00
31096;BME280;17749;51.962;8.560;2023-08-21T17:37:38;100578.78;;;24.15;100.00
31096;BME280;17749;51.962;8.560;2023-08-21T17:40:07;100567.72;;;24.06;100.00
31096;BME280;17749;51.962;8.560;2023-08-21T17:42:34;100571.69;;;24.02;100.00
31096;BME280;17749;51.962;8.560;2023-08-21T17:45:02;100575.44;;;24.01;100.00
31096;BME280;17749;51.962;8.560;2023-08-21T17:47:31;100574.00;;;23.97;100.00
31096;BME280;17749;51.962;8.560;2023-08-21T17:49:58;100570.81;;;23.92;100.00
31096;BME280;17749;51.962;8.560;2023-08-21T17:52:25;100580.38;;;23.87;100.00
31096;BME280;17749;51.962;8.560;2023-08-21T17:54:52;100576.34;;;23.81;100.00
31096;BME280;17749;51.962;8.560;2023-08-21T17:57:19;100588.63;;;23.75;100.00
31096;BME280;17749;51.962;8.560;2023-08-21T17:59:48;100577.16;;;23.72;100.00